createdAt,value
2024-01-20T00:00:20.578Z,100153.50
2024-01-20T00:02:47.659Z,100146.38
2024-01-20T00:05:14.945Z,100150.19
2024-01-20T00:07:44.227Z,100146.81
2024-01-20T00:10:13.200Z,100141.59
2024-01-20T00:12:42.752Z,100141.59
2024-01-20T00:15:11.362Z,100141.84
2024-01-20T00:17:40.955Z,100146.47
2024-01-20T00:20:10.827Z,100162.00
2024-01-20T00:22:38.464Z,100156.53
2024-01-20T00:25:06.260Z,100154.31
2024-01-20T00:27:35.349Z,100157.03
2024-01-20T00:30:04.340Z,100167.94
2024-01-20T00:32:32.690Z,100164.16
2024-01-20T00:35:06.582Z,100158.06
2024-01-20T00:37:38.544Z,100166.25
2024-01-20T00:40:07.585Z,100166.25
2024-01-20T00:42:35.383Z,100157.47
2024-01-20T00:45:03.433Z,100152.00
2024-01-20T00:47:30.917Z,100159.13
2024-01-20T00:49:58.116Z,100161.66
2024-01-20T00:52:25.164Z,100165.22
2024-01-20T00:54:52.969Z,100157.63
2024-01-20T00:57:20.233Z,100172.13
2024-01-20T00:59:47.720Z,100173.78
2024-01-20T01:02:17.533Z,100172.72
2024-01-20T01:04:44.843Z,100153.38
2024-01-20T01:07:12.400Z,100152.28
2024-01-20T01:09:39.662Z,100155.66
2024-01-20T01:12:06.883Z,100160.25
2024-01-20T01:14:34.584Z,100153.38
2024-01-20T01:17:01.808Z,100151.84
2024-01-20T01:19:28.807Z,100158.97
2024-01-20T01:21:55.756Z,100158.97
2024-01-20T01:24:22.735Z,100148.03
2024-01-20T01:26:49.891Z,100139.63
2024-01-20T01:29:17.220Z,100136.03
2024-01-20T01:31:47.265Z,100137.97
2024-01-20T01:34:14.451Z,100140.44
2024-01-20T01:36:41.513Z,100134.97
2024-01-20T01:39:08.763Z,100138.31
2024-01-20T01:41:36.219Z,100141.63
2024-01-20T01:44:03.869Z,100131.19
2024-01-20T01:46:32.091Z,100118.13
2024-01-20T01:48:59.391Z,100120.84
2024-01-20T01:51:26.380Z,100121.09
2024-01-20T01:53:53.587Z,100118.56
2024-01-20T01:56:21.386Z,100115.03
2024-01-20T01:58:48.390Z,100126.19
2024-01-20T02:01:15.347Z,100127.25
2024-01-20T02:03:43.098Z,100131.88
2024-01-20T02:06:10.982Z,100127.47
2024-01-20T02:08:40.952Z,100133.16
2024-01-20T02:11:08.934Z,100135.91
2024-01-20T02:13:36.547Z,100136.97
2024-01-20T02:16:04.522Z,100137.19
2024-01-20T02:18:31.951Z,100136.38
2024-01-20T02:20:59.189Z,100129.22
2024-01-20T02:23:26.321Z,100119.59
2024-01-20T02:25:53.353Z,100125.91
2024-01-20T02:28:20.854Z,100123.41
2024-01-20T02:30:48.126Z,100126.38
2024-01-20T02:33:15.423Z,100136.47
2024-01-20T02:35:42.512Z,100130.16
2024-01-20T02:38:09.560Z,100133.97
2024-01-20T02:40:36.563Z,100149.50
2024-01-20T02:43:03.755Z,100154.16
2024-01-20T02:45:30.995Z,100160.66
2024-01-20T02:47:59.466Z,100157.34
2024-01-20T02:50:26.846Z,100154.59
2024-01-20T02:52:54.333Z,100174.78
2024-01-20T02:55:21.371Z,100161.94
2024-01-20T02:57:48.390Z,100162.19
2024-01-20T03:00:15.926Z,100164.31
2024-01-20T03:02:42.926Z,100160.53
2024-01-20T03:05:10.715Z,100158.84
2024-01-20T03:07:37.735Z,100162.66
2024-01-20T03:10:05.227Z,100168.13
2024-01-20T03:12:32.223Z,100165.63
2024-01-20T03:14:59.342Z,100172.97
2024-01-20T03:17:26.298Z,100166.88
2024-01-20T03:19:53.393Z,100169.59
2024-01-20T03:22:20.389Z,100174.44
2024-01-20T03:24:48.929Z,100168.97
2024-01-20T03:27:19.096Z,100164.00
2024-01-20T03:29:46.101Z,100169.47
2024-01-20T03:32:13.550Z,100165.53
2024-01-20T03:34:40.821Z,100161.72
2024-01-20T03:37:07.856Z,100148.28
2024-01-20T03:39:35.033Z,100150.22
2024-01-20T03:42:02.403Z,100148.56
2024-01-20T03:44:30.013Z,100142.25
2024-01-20T03:46:56.986Z,100136.41
2024-01-20T03:49:24.338Z,100144.00
2024-01-20T03:51:51.411Z,100140.66
2024-01-20T03:54:18.448Z,100146.13
2024-01-20T03:56:45.655Z,100151.81
2024-01-20T03:59:13.009Z,100156.66
2024-01-20T04:01:41.000Z,100157.50
2024-01-20T04:04:08.112Z,100165.91
2024-01-20T04:06:35.449Z,100163.38
2024-01-20T04:09:02.392Z,100155.47
2024-01-20T04:11:29.578Z,100146.66
2024-01-20T04:13:56.609Z,100163.03
2024-01-20T04:16:23.862Z,100151.28
2024-01-20T04:18:51.018Z,100167.19
2024-01-20T04:21:18.216Z,100161.72
2024-01-20T04:23:45.203Z,100163.38
2024-01-20T04:26:12.515Z,100167.81
2024-01-20T04:28:39.472Z,100165.09
2024-01-20T04:31:06.570Z,100169.47
2024-01-20T04:33:36.327Z,100180.97
2024-01-20T04:36:04.267Z,100189.78
2024-01-20T04:38:31.246Z,100184.94
2024-01-20T04:40:58.616Z,100183.84
2024-01-20T04:43:25.648Z,100180.09
2024-01-20T04:45:52.745Z,100176.28
2024-01-20T04:48:21.405Z,100177.09
2024-01-20T04:50:48.620Z,100168.69
2024-01-20T04:53:15.864Z,100163.25
2024-01-20T04:55:43.040Z,100161.13
2024-01-20T04:58:10.098Z,100152.09
2024-01-20T05:00:37.437Z,100157.34
2024-01-20T05:03:04.765Z,100159.00
2024-01-20T05:05:31.981Z,100142.63
2024-01-20T05:07:59.056Z,100127.88
2024-01-20T05:10:26.288Z,100126.22
2024-01-20T05:12:53.487Z,100125.41
2024-01-20T05:15:20.506Z,100116.97
2024-01-20T05:17:47.712Z,100130.88
2024-01-20T05:20:17.979Z,100135.50
2024-01-20T05:22:45.026Z,100136.56
2024-01-20T05:25:12.144Z,100139.28
2024-01-20T05:27:39.183Z,100138.44
2024-01-20T05:30:07.347Z,100145.81
2024-01-20T05:32:34.978Z,100134.91
2024-01-20T05:35:02.193Z,100134.28
2024-01-20T05:37:29.244Z,100146.28
2024-01-20T05:39:56.351Z,100141.88
2024-01-20T05:42:23.285Z,100149.44
2024-01-20T05:44:50.199Z,100142.31
2024-01-20T05:47:17.569Z,100149.44
2024-01-20T05:49:44.500Z,100145.28
2024-01-20T05:52:11.742Z,100143.63
2024-01-20T05:54:38.939Z,100149.06
2024-01-20T05:57:06.125Z,100152.03
2024-01-20T05:59:33.209Z,100153.09
2024-01-20T06:02:00.429Z,100151.44
2024-01-20T06:04:28.073Z,100159.63
2024-01-20T06:06:55.200Z,100150.81
2024-01-20T06:09:22.308Z,100160.91
2024-01-20T06:11:50.066Z,100160.28
2024-01-20T06:14:17.174Z,100165.53
2024-01-20T06:16:44.320Z,100173.72
2024-01-20T06:19:11.238Z,100176.44
2024-01-20T06:21:38.323Z,100166.59
2024-01-20T06:24:05.695Z,100169.56
2024-01-20T06:26:32.898Z,100176.06
2024-01-20T06:28:59.926Z,100179.03
2024-01-20T06:31:28.634Z,100157.19
2024-01-20T06:33:56.389Z,100164.53
2024-01-20T06:36:26.498Z,100163.09
2024-01-20T06:38:54.735Z,100162.28
2024-01-20T06:41:22.127Z,100160.38
2024-01-20T06:43:49.593Z,100154.91
2024-01-20T06:46:16.610Z,100153.84
2024-01-20T06:48:43.982Z,100159.06
2024-01-20T06:51:16.873Z,100163.88
2024-01-20T06:53:45.254Z,100161.38
2024-01-20T06:56:12.730Z,100158.41
2024-01-20T06:58:40.619Z,100171.00
2024-01-20T07:01:07.819Z,100173.28
2024-01-20T07:03:35.210Z,100173.88
2024-01-20T07:06:02.692Z,100182.69
2024-01-20T07:08:30.186Z,100191.47
2024-01-20T07:10:57.376Z,100190.16
2024-01-20T07:13:24.478Z,100187.22
2024-01-20T07:15:51.612Z,100204.41
2024-01-20T07:18:18.683Z,100199.78
2024-01-20T07:20:45.941Z,100197.06
2024-01-20T07:23:12.965Z,100201.44
2024-01-20T07:25:40.820Z,100196.47
2024-01-20T07:28:08.251Z,100197.69
2024-01-20T07:30:35.877Z,100201.00
2024-01-20T07:33:03.312Z,100215.50
2024-01-20T07:35:30.379Z,100227.88
2024-01-20T07:37:57.317Z,100225.72
2024-01-20T07:40:24.529Z,100237.03
2024-01-20T07:42:51.471Z,100225.88
2024-01-20T07:45:18.501Z,100228.41
2024-01-20T07:47:47.654Z,100228.19
2024-01-20T07:50:15.082Z,100224.38
2024-01-20T07:52:42.061Z,100223.47
2024-01-20T07:55:09.587Z,100229.56
2024-01-20T07:57:36.633Z,100233.94
2024-01-20T08:00:06.200Z,100239.78
2024-01-20T08:02:35.105Z,100242.91
2024-01-20T08:05:02.331Z,100253.13
2024-01-20T08:07:29.365Z,100257.75
2024-01-20T08:09:56.368Z,100260.25
2024-01-20T08:12:23.631Z,100257.28
2024-01-20T08:14:50.621Z,100249.09
2024-01-20T08:17:19.100Z,100253.91
2024-01-20T08:19:50.696Z,100256.38
2024-01-20T08:22:19.093Z,100266.84
2024-01-20T08:24:46.214Z,100276.47
2024-01-20T08:27:13.282Z,100257.97
2024-01-20T08:29:40.179Z,100259.66
2024-01-20T08:32:07.436Z,100267.63
2024-01-20T08:34:34.771Z,100270.94
2024-01-20T08:37:01.848Z,100270.50
2024-01-20T08:39:29.012Z,100262.28
2024-01-20T08:41:56.811Z,100272.97
2024-01-20T08:44:23.893Z,100267.28
2024-01-20T08:46:50.842Z,100245.41
2024-01-20T08:49:17.927Z,100246.03
2024-01-20T08:51:44.927Z,100253.16
2024-01-20T08:54:12.275Z,100257.56
2024-01-20T08:56:39.481Z,100258.19
2024-01-20T08:59:06.670Z,100257.09
2024-01-20T09:01:33.748Z,100259.84
2024-01-20T09:04:02.389Z,100257.69
2024-01-20T09:06:29.643Z,100261.03
2024-01-20T09:08:56.853Z,100256.03
2024-01-20T09:11:24.288Z,100262.72
2024-01-20T09:13:53.011Z,100262.72
2024-01-20T09:16:20.177Z,100270.69
2024-01-20T09:18:47.495Z,100270.91
2024-01-20T09:21:14.682Z,100283.19
2024-01-20T09:23:42.256Z,100292.59
2024-01-20T09:26:09.723Z,100287.84
2024-01-20T09:28:36.692Z,100280.22
2024-01-20T09:31:04.596Z,100267.09
2024-01-20T09:33:36.030Z,100282.66
2024-01-20T09:36:04.493Z,100282.66
2024-01-20T09:38:31.648Z,100273.41
2024-01-20T09:40:58.849Z,100280.88
2024-01-20T09:43:26.627Z,100285.91
2024-01-20T09:45:54.245Z,100280.81
2024-01-20T09:48:21.843Z,100276.19
2024-01-20T09:50:49.456Z,100284.16
2024-01-20T09:53:17.733Z,100284.16
2024-01-20T09:55:46.371Z,100275.34
2024-01-20T09:58:14.999Z,100273.69
2024-01-20T10:00:43.582Z,100276.41
2024-01-20T10:03:12.419Z,100288.41
2024-01-20T10:05:40.193Z,100297.19
2024-01-20T10:08:07.665Z,100301.16
2024-01-20T10:10:35.381Z,100307.69
2024-01-20T10:13:02.791Z,100297.34
2024-01-20T10:15:34.317Z,100301.06
2024-01-20T10:18:09.914Z,100298.56
2024-01-20T10:20:37.988Z,100301.44
2024-01-20T10:23:07.592Z,100298.50
2024-01-20T10:25:34.906Z,100295.31
2024-01-20T10:28:01.866Z,100290.44
2024-01-20T10:30:30.579Z,100293.81
2024-01-20T10:33:08.902Z,100286.19
2024-01-20T10:35:38.864Z,100288.72
2024-01-20T10:38:20.011Z,100294.16
2024-01-20T10:40:54.549Z,100302.38
2024-01-20T10:43:21.806Z,100310.56
2024-01-20T10:46:25.452Z,100312.69
2024-01-20T10:48:55.353Z,100307.47
2024-01-20T10:51:30.223Z,100305.25
2024-01-20T10:53:58.667Z,100310.94
2024-01-20T10:56:27.348Z,100327.16
2024-01-20T10:59:10.020Z,100331.47
2024-01-20T11:01:38.852Z,100338.22
2024-01-20T11:04:06.413Z,100338.22
2024-01-20T11:06:34.088Z,100331.03
2024-01-20T11:09:03.036Z,100323.47
2024-01-20T11:11:30.933Z,100325.50
2024-01-20T11:14:01.304Z,100333.84
2024-01-20T11:16:34.439Z,100324.16
2024-01-20T11:19:10.222Z,100322.84
2024-01-20T11:21:37.571Z,100314.81
2024-01-20T11:24:08.273Z,100303.22
2024-01-20T11:26:37.133Z,100291.00
2024-01-20T11:29:09.842Z,100289.47
2024-01-20T11:31:37.139Z,100286.56
2024-01-20T11:34:07.537Z,100287.53
2024-01-20T11:36:35.798Z,100274.16
2024-01-20T11:39:05.368Z,100267.81
2024-01-20T11:41:32.427Z,100281.19
2024-01-20T11:43:59.505Z,100276.03
2024-01-20T11:46:26.665Z,100285.97
2024-01-20T11:48:56.052Z,100298.50
2024-01-20T11:51:23.659Z,100305.59
2024-01-20T11:53:51.013Z,100292.09
2024-01-20T11:56:18.353Z,100283.22
2024-01-20T11:58:45.483Z,100278.16
2024-01-20T12:01:15.497Z,100284.41
2024-01-20T12:03:43.014Z,100290.00
2024-01-20T12:06:13.121Z,100296.91
2024-01-20T12:08:43.549Z,100301.16
2024-01-20T12:11:24.773Z,100311.41
2024-01-20T12:13:52.002Z,100309.56
2024-01-20T12:16:19.724Z,100313.38
2024-01-20T12:18:47.826Z,100315.88
2024-01-20T12:21:15.080Z,100315.44
2024-01-20T12:23:42.192Z,100322.94
2024-01-20T12:26:17.700Z,100325.44
2024-01-20T12:28:48.141Z,100346.00
2024-01-20T12:31:19.274Z,100335.91
2024-01-20T12:33:48.696Z,100353.75
2024-01-20T12:36:15.889Z,100353.50
2024-01-20T12:38:42.889Z,100350.78
2024-01-20T12:41:09.889Z,100342.56
2024-01-20T12:43:37.096Z,100348.66
2024-01-20T12:46:04.130Z,100350.31
2024-01-20T12:48:31.367Z,100369.22
2024-01-20T12:50:58.875Z,100358.53
2024-01-20T12:53:26.321Z,100351.53
2024-01-20T12:55:53.354Z,100330.75
2024-01-20T12:58:20.343Z,100331.56
2024-01-20T13:00:47.422Z,100349.88
2024-01-20T13:03:14.605Z,100351.53
2024-01-20T13:05:44.023Z,100363.53
2024-01-20T13:08:11.817Z,100356.41
2024-01-20T13:10:38.833Z,100342.75
2024-01-20T13:13:06.186Z,100361.88
2024-01-20T13:15:33.480Z,100372.19
2024-01-20T13:18:00.730Z,100371.13
2024-01-20T13:20:27.887Z,100384.19
2024-01-20T13:22:54.866Z,100383.09
2024-01-20T13:25:21.804Z,100379.16
2024-01-20T13:27:49.055Z,100381.28
2024-01-20T13:30:16.339Z,100391.84
2024-01-20T13:32:43.677Z,100388.47
2024-01-20T13:35:11.120Z,100394.16
2024-01-20T13:37:38.054Z,100395.22
2024-01-20T13:40:09.589Z,100402.56
2024-01-20T13:42:38.588Z,100412.06
2024-01-20T13:45:08.655Z,100413.13
2024-01-20T13:47:37.394Z,100418.81
2024-01-20T13:50:05.578Z,100416.31
2024-01-20T13:52:32.484Z,100416.31
2024-01-20T13:54:59.694Z,100419.28
2024-01-20T13:57:26.756Z,100423.88
2024-01-20T13:59:53.771Z,100415.09
2024-01-20T14:02:20.993Z,100435.25
2024-01-20T14:04:48.021Z,100446.41
2024-01-20T14:07:15.244Z,100447.69
2024-01-20T14:09:42.946Z,100460.50
2024-01-20T14:12:10.594Z,100466.16
2024-01-20T14:14:37.793Z,100463.03
2024-01-20T14:17:05.719Z,100477.50
2024-01-20T14:19:33.017Z,100484.88
2024-01-20T14:22:00.051Z,100492.44
2024-01-20T14:24:28.140Z,100481.75
2024-01-20T14:26:55.129Z,100483.66
2024-01-20T14:29:22.138Z,100492.06
2024-01-20T14:31:50.438Z,100494.78
2024-01-20T14:34:18.280Z,100494.19
2024-01-20T14:36:47.162Z,100497.97
2024-01-20T14:39:15.173Z,100501.75
2024-01-20T14:41:42.136Z,100507.19
2024-01-20T14:44:09.036Z,100517.09
2024-01-20T14:46:36.160Z,100522.28
2024-01-20T14:49:06.173Z,100519.34
2024-01-20T14:51:36.181Z,100528.41
2024-01-20T14:54:04.373Z,100524.81
2024-01-20T14:56:32.583Z,100543.28
2024-01-20T14:59:04.336Z,100555.88
2024-01-20T15:01:32.218Z,100563.84
2024-01-20T15:03:59.345Z,100565.50
2024-01-20T15:06:30.073Z,100562.59
2024-01-20T15:08:57.415Z,100554.59
2024-01-20T15:11:24.628Z,100574.34
2024-01-20T15:13:51.885Z,100594.09
2024-01-20T15:16:18.920Z,100600.84
2024-01-20T15:18:46.200Z,100605.00
2024-01-20T15:21:13.252Z,100595.75
2024-01-20T15:23:40.349Z,100587.56
2024-01-20T15:26:07.413Z,100593.03
2024-01-20T15:28:34.509Z,100606.69
2024-01-20T15:31:01.456Z,100620.34
2024-01-20T15:33:28.664Z,100613.22
2024-01-20T15:35:55.720Z,100617.59
2024-01-20T15:38:22.769Z,100634.00
2024-01-20T15:40:50.447Z,100650.38
2024-01-20T15:43:17.732Z,100659.63
2024-01-20T15:45:45.019Z,100664.25
2024-01-20T15:48:12.149Z,100672.22
2024-01-20T15:50:39.301Z,100671.16
2024-01-20T15:53:06.366Z,100653.72
2024-01-20T15:55:33.285Z,100648.25
2024-01-20T15:58:00.335Z,100667.38
2024-01-20T16:00:27.665Z,100686.47
2024-01-20T16:02:54.643Z,100702.06
2024-01-20T16:05:21.659Z,100727.44
2024-01-20T16:07:48.776Z,100730.19
2024-01-20T16:10:15.730Z,100723.03
2024-01-20T16:12:42.909Z,100731.25
2024-01-20T16:15:12.914Z,100728.97
2024-01-20T16:17:42.154Z,100747.00
2024-01-20T16:20:10.008Z,100761.50
2024-01-20T16:22:36.973Z,100762.56
2024-01-20T16:25:04.592Z,100767.19
2024-01-20T16:27:31.661Z,100760.88
2024-01-20T16:29:58.750Z,100748.28
2024-01-20T16:32:25.879Z,100747.41
2024-01-20T16:34:54.173Z,100766.72
2024-01-20T16:37:21.193Z,100763.38
2024-01-20T16:39:49.236Z,100771.78
2024-01-20T16:42:16.693Z,100774.72
2024-01-20T16:44:43.952Z,100785.66
2024-01-20T16:47:11.148Z,100788.81
2024-01-20T16:49:38.444Z,100796.16
2024-01-20T16:52:07.588Z,100818.22
2024-01-20T16:54:34.811Z,100826.63
2024-01-20T16:57:02.381Z,100838.59
2024-01-20T16:59:30.752Z,100836.91
2024-01-20T17:01:58.941Z,100864.22
2024-01-20T17:04:26.200Z,100863.38
2024-01-20T17:06:53.474Z,100877.22
2024-01-20T17:09:20.513Z,100865.50
2024-01-20T17:11:47.739Z,100875.56
2024-01-20T17:14:19.784Z,100881.22
2024-01-20T17:16:48.330Z,100891.09
2024-01-20T17:19:15.635Z,100895.72
2024-01-20T17:21:42.766Z,100909.16
2024-01-20T17:24:10.158Z,100916.28
2024-01-20T17:26:37.357Z,100918.81
2024-01-20T17:29:04.721Z,100915.88
2024-01-20T17:31:35.046Z,100919.44
2024-01-20T17:34:02.534Z,100936.03
2024-01-20T17:36:29.675Z,100940.25
2024-01-20T17:38:57.203Z,100941.06
2024-01-20T17:41:24.221Z,100943.59
2024-01-20T17:43:51.395Z,100951.59
2024-01-20T17:46:19.182Z,100957.06
2024-01-20T17:48:46.868Z,100959.56
2024-01-20T17:51:13.973Z,100964.19
2024-01-20T17:53:41.347Z,100964.38
2024-01-20T17:56:08.311Z,100967.56
2024-01-20T17:58:35.531Z,100976.38
2024-01-20T18:01:02.916Z,100981.41
2024-01-20T18:03:30.124Z,100998.63
2024-01-20T18:05:57.415Z,100983.28
2024-01-20T18:08:25.793Z,100987.28
2024-01-20T18:10:52.795Z,100996.50
2024-01-20T18:13:20.030Z,101008.28
2024-01-20T18:15:47.155Z,101017.91
2024-01-20T18:18:14.758Z,101021.91
2024-01-20T18:20:41.858Z,101027.34
2024-01-20T18:23:08.762Z,101041.00
2024-01-20T18:25:35.828Z,101053.78
2024-01-20T18:28:05.960Z,101047.28
2024-01-20T18:30:33.404Z,101055.47
2024-01-20T18:33:00.803Z,101065.34
2024-01-20T18:35:27.804Z,101069.13
2024-01-20T18:37:55.780Z,101082.78
2024-01-20T18:40:22.976Z,101087.16
2024-01-20T18:42:51.300Z,101098.09
2024-01-20T18:45:19.517Z,101103.78
2024-01-20T18:47:47.338Z,101116.38
2024-01-20T18:50:14.960Z,101125.38
2024-01-20T18:52:42.116Z,101136.31
2024-01-20T18:55:12.735Z,101140.75
2024-01-20T18:57:40.067Z,101139.25
2024-01-20T19:00:07.986Z,101150.19
2024-01-20T19:02:35.053Z,101158.56
2024-01-20T19:05:02.107Z,101156.22
2024-01-20T19:07:29.423Z,101161.06
2024-01-20T19:09:56.515Z,101170.03
2024-01-20T19:12:24.825Z,101171.75
2024-01-20T19:14:52.159Z,101180.94
2024-01-20T19:17:19.265Z,101179.47
2024-01-20T19:19:46.579Z,101183.44
2024-01-20T19:22:13.894Z,101187.88
2024-01-20T19:24:40.859Z,101187.03
2024-01-20T19:27:11.316Z,101180.72
2024-01-20T19:29:38.542Z,101184.50
2024-01-20T19:32:06.030Z,101189.94
2024-01-20T19:34:33.262Z,101189.94
2024-01-20T19:37:00.400Z,101199.00
2024-01-20T19:39:27.627Z,101201.91
2024-01-20T19:41:54.531Z,101198.13
2024-01-20T19:44:22.734Z,101208.41
2024-01-20T19:46:50.106Z,101211.16
2024-01-20T19:49:37.232Z,101224.69
2024-01-20T19:52:04.629Z,101240.06
2024-01-20T19:54:31.809Z,101232.63
2024-01-20T19:57:00.971Z,101225.63
2024-01-20T19:59:27.909Z,101232.91
2024-01-20T20:01:55.076Z,101234.72
2024-01-20T20:04:22.224Z,101234.84
2024-01-20T20:06:52.031Z,101247.94
2024-01-20T20:09:20.864Z,101236.69
2024-01-20T20:11:48.513Z,101247.66
2024-01-20T20:14:15.549Z,101242.94
2024-01-20T20:16:42.936Z,101237.53
2024-01-20T20:19:13.758Z,101244.09
2024-01-20T20:21:41.651Z,101241.59
2024-01-20T20:24:09.863Z,101246.44
2024-01-20T20:26:42.390Z,101250.88
2024-01-20T20:29:13.709Z,101262.66
2024-01-20T20:31:41.488Z,101267.94
2024-01-20T20:34:09.193Z,101259.34
2024-01-20T20:36:36.611Z,101266.09
2024-01-20T20:39:03.703Z,101258.75
2024-01-20T20:41:31.012Z,101262.94
2024-01-20T20:43:58.346Z,101274.53
2024-01-20T20:46:25.525Z,101273.66
2024-01-20T20:48:53.056Z,101282.50
2024-01-20T20:51:20.191Z,101275.34
2024-01-20T20:53:47.365Z,101278.09
2024-01-20T20:56:14.627Z,101279.13
2024-01-20T20:58:43.949Z,101289.19
2024-01-20T21:01:11.922Z,101293.63
2024-01-20T21:03:39.505Z,101303.91
2024-01-20T21:06:11.351Z,101300.34
2024-01-20T21:08:38.649Z,101301.34
2024-01-20T21:11:05.894Z,101300.53
2024-01-20T21:13:33.106Z,101294.59
2024-01-20T21:16:00.377Z,101312.88
2024-01-20T21:18:27.472Z,101305.09
2024-01-20T21:20:54.498Z,101304.25
2024-01-20T21:23:21.604Z,101310.75
2024-01-20T21:25:48.615Z,101312.44
2024-01-20T21:28:17.903Z,101318.94
2024-01-20T21:30:44.899Z,101318.09
2024-01-20T21:33:12.201Z,101321.03
2024-01-20T21:35:39.337Z,101332.81
2024-01-20T21:38:08.220Z,101333.00
2024-01-20T21:40:35.195Z,101331.94
2024-01-20T21:43:02.366Z,101340.31
2024-01-20T21:45:29.442Z,101338.84
2024-01-20T21:47:56.645Z,101342.63
2024-01-20T21:50:24.013Z,101343.66
2024-01-20T21:52:51.185Z,101334.44
2024-01-20T21:55:18.207Z,101314.41
2024-01-20T21:57:47.138Z,101338.66
2024-01-20T22:00:15.971Z,101336.97
2024-01-20T22:02:43.942Z,101340.50
2024-01-20T22:05:11.947Z,101330.25
2024-01-20T22:07:39.155Z,101328.16
2024-01-20T22:10:06.626Z,101324.38
2024-01-20T22:12:35.080Z,101331.16
2024-01-20T22:15:02.212Z,101322.56
2024-01-20T22:17:29.183Z,101322.81
2024-01-20T22:19:56.430Z,101327.03
2024-01-20T22:22:23.865Z,101322.00
2024-01-20T22:24:51.034Z,101328.75
2024-01-20T22:27:18.027Z,101332.78
2024-01-20T22:29:45.065Z,101329.00
2024-01-20T22:32:12.078Z,101335.94
2024-01-20T22:34:39.346Z,101333.88
2024-01-20T22:37:07.197Z,101345.63
2024-01-20T22:39:34.344Z,101340.16
2024-01-20T22:42:02.331Z,101343.56
2024-01-20T22:44:29.474Z,101345.63
2024-01-20T22:46:56.445Z,101352.13
2024-01-20T22:49:23.755Z,101349.41
2024-01-20T22:51:50.884Z,101353.19
2024-01-20T22:54:18.602Z,101339.72
2024-01-20T22:56:45.593Z,101330.84
2024-01-20T22:59:12.739Z,101345.56
2024-01-20T23:01:41.056Z,101354.81
2024-01-20T23:04:08.262Z,101344.94
2024-01-20T23:06:35.440Z,101352.69
2024-01-20T23:09:05.383Z,101356.47
2024-01-20T23:11:32.403Z,101350.34
2024-01-20T23:13:59.410Z,101355.81
2024-01-20T23:16:26.351Z,101366.94
2024-01-20T23:18:55.353Z,101358.09
2024-01-20T23:21:22.688Z,101368.16
2024-01-20T23:23:49.802Z,101370.28
2024-01-20T23:26:18.052Z,101361.41
2024-01-20T23:28:45.156Z,101358.06
2024-01-20T23:31:12.581Z,101370.03
2024-01-20T23:33:40.085Z,101363.91
2024-01-20T23:36:07.591Z,101371.44
2024-01-20T23:38:35.032Z,101364.31
2024-01-20T23:41:02.014Z,101369.09
2024-01-20T23:43:29.102Z,101366.78
2024-01-20T23:45:56.423Z,101360.66
2024-01-20T23:48:23.678Z,101354.56
2024-01-20T23:50:50.648Z,101357.69
2024-01-20T23:53:17.762Z,101362.50
2024-01-20T23:55:44.712Z,101363.75
2024-01-20T23:58:12.195Z,101376.72
